Time;durP1;ratioP1;P1;durP2;ratioP2;P2;SDS_P1;SDS_P2;PMS_P1;PMS_P2;Temp;Humidity;BMP_temperature;BMP_pressure;BME280_temperature;BME280_humidity;BME280_pressure;Samples;Min_cycle;Max_cycle;Signal;HPM_P1;HPM_P2
2022/04/20 00:00:47;;;;;;;33.50;18.10;;;;;;;0.98;71.88;98209.35;105516;1282;137587;-81
2022/04/20 00:03:29;;;;;;;37.80;20.30;;;;;;;0.91;71.92;98205.56;105575;1282;23923;-81
2022/04/20 00:05:56;;;;;;;33.60;17.30;;;;;;;0.88;72.16;98208.63;105709;1282;24334;-81
2022/04/20 00:08:37;;;;;;;30.80;18.40;;;;;;;0.87;72.10;98205.08;105655;1282;138420;-81
2022/04/20 00:11:08;;;;;;;36.80;18.60;;;;;;;0.86;72.35;98206.98;105613;1282;22660;-80
2022/04/20 00:13:35;;;;;;;34.60;17.20;;;;;;;0.83;72.43;98203.52;105710;1282;137669;-80
2022/04/20 00:16:02;;;;;;;35.20;19.20;;;;;;;0.79;72.32;98203.65;105591;1283;22548;-79
2022/04/20 00:18:30;;;;;;;35.20;18.10;;;;;;;0.73;72.46;98201.94;105809;1282;22569;-79
2022/04/20 00:20:57;;;;;;;40.50;19.30;;;;;;;0.68;72.55;98196.27;105547;1282;137414;-79
2022/04/20 00:23:26;;;;;;;34.50;18.20;;;;;;;0.63;72.61;98197.77;105621;1282;25475;-79
2022/04/20 00:25:53;;;;;;;32.30;16.30;;;;;;;0.61;72.72;98194.45;105558;1283;138698;-79
2022/04/20 00:28:20;;;;;;;34.10;17.40;;;;;;;0.60;73.06;98196.86;105704;1282;22543;-79
2022/04/20 00:30:47;;;;;;;32.50;16.40;;;;;;;0.60;73.26;98194.20;105454;1282;137794;-79
2022/04/20 00:33:14;;;;;;;37.40;17.20;;;;;;;0.60;73.27;98194.80;105564;1282;24321;-79
2022/04/20 00:35:44;;;;;;;30.80;16.40;;;;;;;0.59;73.23;98196.29;105570;1282;24268;-79
2022/04/20 00:38:11;;;;;;;34.60;18.50;;;;;;;0.59;73.37;98196.90;105596;1282;137725;-79
2022/04/20 00:40:43;;;;;;;34.30;18.30;;;;;;;0.58;73.50;98201.06;105744;1282;25498;-79
2022/04/20 00:43:13;;;;;;;35.20;17.30;;;;;;;0.58;73.37;98199.28;105491;1282;138643;-81
2022/04/20 00:45:47;;;;;;;34.60;18.10;;;;;;;0.58;73.67;98200.19;105718;1282;25370;-79
2022/04/20 00:48:16;;;;;;;33.10;16.60;;;;;;;0.62;73.89;98203.48;105636;1282;22532;-79
2022/04/20 00:50:43;;;;;;;34.80;16.20;;;;;;;0.65;74.06;98203.93;105396;1282;138197;-79
2022/04/20 00:53:10;;;;;;;31.80;16.10;;;;;;;0.67;74.03;98207.75;105866;1282;23933;-79
2022/04/20 00:55:37;;;;;;;32.20;16.60;;;;;;;0.68;73.91;98208.63;105612;1282;138115;-78
2022/04/20 00:58:09;;;;;;;34.70;17.00;;;;;;;0.68;74.05;98209.26;105685;1282;24336;-78
2022/04/20 01:00:51;;;;;;;29.30;15.90;;;;;;;0.69;74.04;98204.92;105559;1282;138359;-78
2022/04/20 01:03:21;;;;;;;33.90;15.50;;;;;;;0.70;74.05;98208.47;105540;1282;24223;-78
2022/04/20 01:06:02;;;;;;;28.10;14.80;;;;;;;0.74;73.92;98208.38;105642;1281;24420;-78
2022/04/20 01:08:57;;;;;;;27.00;14.00;;;;;;;0.79;74.07;98205.67;105546;1282;138179;-78
2022/04/20 01:11:40;;;;;;;29.20;15.10;;;;;;;0.82;73.83;98199.96;105743;1282;24419;-78
2022/04/20 01:14:27;;;;;;;25.00;12.10;;;;;;;0.83;73.96;98194.29;105580;1282;137724;-78
2022/04/20 01:17:08;;;;;;;26.10;14.00;;;;;;;0.79;73.54;98191.69;105669;1282;24419;-78
2022/04/20 01:19:58;;;;;;;29.80;16.10;;;;;;;0.77;73.84;98192.66;105233;1282;137709;-77
2022/04/20 01:22:51;;;;;;;25.40;14.50;;;;;;;0.77;73.62;98197.32;105423;1282;25272;-78
2022/04/20 01:25:33;;;;;;;25.60;14.60;;;;;;;0.77;73.73;98197.28;105615;1282;137936;-77
2022/04/20 01:28:10;;;;;;;27.10;14.30;;;;;;;0.79;73.85;98195.11;105487;1282;22634;-76
2022/04/20 01:30:57;;;;;;;26.80;14.70;;;;;;;0.82;73.78;98194.00;105524;1282;138005;-77
2022/04/20 01:33:38;;;;;;;26.50;13.60;;;;;;;0.84;73.73;98192.90;105778;1282;24445;-76
2022/04/20 01:36:05;;;;;;;29.40;14.20;;;;;;;0.79;73.75;98189.18;105646;1282;23454;-76
2022/04/20 01:38:32;;;;;;;30.80;15.60;;;;;;;0.73;73.60;98186.52;105316;1282;137666;-76
2022/04/20 01:40:59;;;;;;;27.70;15.70;;;;;;;0.69;73.86;98185.07;105688;1282;22591;-76
2022/04/20 01:43:27;;;;;;;26.90;15.10;;;;;;;0.67;74.03;98182.64;105541;1282;137827;-76
2022/04/20 01:46:37;;;;;;;28.40;14.40;;;;;;;0.66;74.06;98183.67;104970;1282;22746;-77
2022/04/20 01:49:38;;;;;;;27.10;14.30;;;;;;;0.64;74.08;98181.71;105617;1282;137943;-77
2022/04/20 01:52:10;;;;;;;24.80;14.20;;;;;;;0.64;74.26;98180.27;105752;1282;24291;-75
2022/04/20 01:54:54;;;;;;;25.20;13.00;;;;;;;0.62;74.57;98179.48;105537;1283;137596;-75
2022/04/20 01:57:53;;;;;;;23.30;13.20;;;;;;;0.59;74.54;98176.70;105698;1281;23047;-77
2022/04/20 02:00:34;;;;;;;27.50;13.30;;;;;;;0.53;74.47;98175.60;105561;1283;137697;-74
2022/04/20 02:03:15;;;;;;;29.00;15.10;;;;;;;0.49;74.48;98175.02;105698;1282;22607;-77
2022/04/20 02:05:46;;;;;;;26.80;14.50;;;;;;;0.48;74.78;98173.11;105692;1282;24451;-77
2022/04/20 02:08:32;;;;;;;26.60;14.90;;;;;;;0.50;74.81;98172.89;105581;1281;138582;-77
2022/04/20 02:11:11;;;;;;;26.60;15.50;;;;;;;0.51;74.77;98172.28;105693;1282;22657;-77
2022/04/20 02:13:39;;;;;;;27.10;14.30;;;;;;;0.50;74.96;98175.17;105522;1282;137361;-77
2022/04/20 02:16:07;;;;;;;26.00;14.20;;;;;;;0.50;74.92;98170.95;105726;1282;24235;-77
2022/04/20 02:18:47;;;;;;;19.60;10.80;;;;;;;0.49;75.01;98168.63;105581;1282;137708;-77
2022/04/20 02:21:42;;;;;;;24.70;13.80;;;;;;;0.43;74.78;98167.93;105551;1282;22569;-77
2022/04/20 02:24:13;;;;;;;29.80;15.70;;;;;;;0.37;75.12;98158.39;105507;1282;22583;-75
2022/04/20 02:26:42;;;;;;;33.20;16.20;;;;;;;0.33;75.07;98152.29;105226;1282;137930;-74
2022/04/20 02:29:09;;;;;;;26.90;14.80;;;;;;;0.31;75.35;98148.01;105357;1282;22544;-75
2022/04/20 02:31:39;;;;;;;25.10;14.20;;;;;;;0.34;75.73;98143.63;105338;1282;137906;-75
2022/04/20 02:34:06;;;;;;;25.90;14.00;;;;;;;0.38;75.73;98144.59;105167;1283;24432;-75
2022/04/20 02:36:34;;;;;;;27.30;13.50;;;;;;;0.37;75.49;98141.79;105162;1284;22832;-75
2022/04/20 02:39:04;;;;;;;26.70;13.60;;;;;;;0.35;75.30;98140.60;105137;1284;137741;-75
2022/04/20 02:41:45;;;;;;;26.00;13.40;;;;;;;0.35;75.41;98142.98;105107;1284;22600;-75
2022/04/20 02:44:26;;;;;;;27.60;14.70;;;;;;;0.33;75.34;98139.39;105248;1282;138143;-75
2022/04/20 02:46:53;;;;;;;28.50;14.50;;;;;;;0.33;75.23;98138.85;105454;1282;26502;-75
2022/04/20 02:49:21;;;;;;;29.80;14.60;;;;;;;0.35;75.43;98143.86;105349;1282;138101;-75
2022/04/20 02:51:51;;;;;;;27.40;15.50;;;;;;;0.37;75.35;98147.00;105467;1283;25302;-75
2022/04/20 02:54:20;;;;;;;26.40;14.90;;;;;;;0.39;75.40;98153.19;105622;1281;22589;-75
2022/04/20 02:56:47;;;;;;;;;;;;;;;0.38;75.24;98147.73;105544;1282;137752;-74
2022/04/20 02:59:28;;;;;;;27.10;14.00;;;;;;;0.36;75.31;98142.80;105781;1282;24986;-75
2022/04/20 03:01:57;;;;;;;27.10;14.90;;;;;;;0.28;75.33;98146.98;105699;1282;138395;-74
2022/04/20 03:04:24;;;;;;;26.50;14.70;;;;;;;0.23;75.44;98149.30;105536;1282;22674;-74
2022/04/20 03:06:51;;;;;;;24.70;14.00;;;;;;;0.21;75.74;98152.36;105572;1282;138372;-74
2022/04/20 03:09:27;;;;;;;31.50;15.50;;;;;;;0.20;75.67;98150.91;105430;1284;23463;-74
2022/04/20 03:11:54;;;;;;;24.10;13.20;;;;;;;0.18;75.81;98149.42;105596;1284;25273;-74
2022/04/20 03:14:22;;;;;;;26.80;15.10;;;;;;;0.17;75.93;98148.45;105457;1285;137589;-74
2022/04/20 03:17:04;;;;;;;25.40;14.10;;;;;;;0.16;76.14;98146.26;105569;1282;23954;-75
2022/04/20 03:19:45;;;;;;;28.20;15.70;;;;;;;0.15;76.08;98145.67;105655;1282;137497;-73
2022/04/20 03:22:16;;;;;;;27.50;15.90;;;;;;;0.15;76.12;98142.12;105616;1282;22570;-73
2022/04/20 03:24:43;;;;;;;26.40;14.20;;;;;;;0.17;76.14;98145.85;105431;1282;138184;-73
2022/04/20 03:27:24;;;;;;;27.50;14.60;;;;;;;0.18;76.23;98144.60;105675;1282;22548;-76
2022/04/20 03:29:56;;;;;;;26.20;14.90;;;;;;;0.19;76.25;98143.65;105599;1282;22636;-73
2022/04/20 03:32:23;;;;;;;29.10;16.50;;;;;;;0.18;76.48;98144.13;105502;1282;137609;-73
2022/04/20 03:34:51;;;;;;;31.10;17.80;;;;;;;0.16;76.28;98146.17;105737;1282;24321;-73
2022/04/20 03:37:18;;;;;;;36.90;19.10;;;;;;;0.12;76.26;98147.23;105549;1282;137968;-73
2022/04/20 03:39:45;;;;;;;39.90;20.70;;;;;;;0.05;76.22;98148.50;105690;1281;26579;-73
2022/04/20 03:42:12;;;;;;;36.60;19.60;;;;;;;0.03;76.26;98147.36;105657;1282;25241;-73
2022/04/20 03:44:39;;;;;;;35.30;19.00;;;;;;;0.02;76.42;98149.52;105537;1282;138835;-73
2022/04/20 03:47:07;;;;;;;38.80;19.50;;;;;;;-0.01;76.35;98149.79;105636;1282;22543;-72
2022/04/20 03:49:34;;;;;;;37.90;20.60;;;;;;;-0.03;76.85;98151.52;105737;1282;137591;-73
2022/04/20 03:52:07;;;;;;;37.40;20.80;;;;;;;-0.06;76.46;98150.58;105618;1282;22573;-73
2022/04/20 03:54:35;;;;;;;43.60;22.40;;;;;;;-0.08;76.46;98150.59;105667;1282;22726;-73
2022/04/20 03:57:04;;;;;;;37.00;19.80;;;;;;;-0.07;76.76;98151.45;105868;1282;138360;-73
2022/04/20 03:59:35;;;;;;;32.60;18.70;;;;;;;-0.07;76.63;98149.40;105653;1282;22548;-73
2022/04/20 04:02:04;;;;;;;32.80;18.80;;;;;;;-0.05;76.79;98153.60;105497;1282;138247;-73
2022/04/20 04:04:51;;;;;;;32.20;19.40;;;;;;;-0.01;76.90;98157.23;105708;1282;22595;-73
2022/04/20 04:07:41;;;;;;;37.40;19.50;;;;;;;0.05;77.05;98167.89;105519;1282;137941;-73
2022/04/20 04:10:09;;;;;;;31.20;18.10;;;;;;;0.06;77.04;98171.45;105803;1282;24322;-73
2022/04/20 04:12:37;;;;;;;35.60;20.00;;;;;;;0.06;76.83;98165.60;105639;1282;22554;-73
2022/04/20 04:15:05;;;;;;;38.90;20.90;;;;;;;0.06;76.78;98168.29;105682;1282;138238;-73
2022/04/20 04:17:34;;;;;;;36.20;20.40;;;;;;;0.08;76.80;98171.23;105634;1282;22590;-73
2022/04/20 04:20:02;;;;;;;34.80;20.60;;;;;;;0.09;76.95;98173.75;105436;1282;138013;-73
2022/04/20 04:22:29;;;;;;;41.40;21.30;;;;;;;0.13;76.91;98175.71;105585;1282;22563;-73
2022/04/20 04:25:16;;;;;;;32.90;19.80;;;;;;;0.17;77.03;98173.63;105554;1282;137700;-74
2022/04/20 04:27:44;;;;;;;38.40;22.00;;;;;;;0.22;77.05;98171.38;105794;1283;25281;-73
2022/04/20 04:30:12;;;;;;;37.90;22.30;;;;;;;0.25;76.93;98176.08;105668;1282;22554;-73
2022/04/20 04:32:49;;;;;;;42.80;22.80;;;;;;;0.28;76.81;98174.21;105554;1282;137508;-73
2022/04/20 04:35:17;;;;;;;37.90;21.90;;;;;;;0.29;76.78;98173.70;105393;1284;22704;-73
2022/04/20 04:37:45;;;;;;;33.30;19.20;;;;;;;0.30;76.47;98175.56;105505;1282;138199;-75
2022/04/20 04:40:14;;;;;;;42.00;20.60;;;;;;;0.33;76.61;98170.50;105699;1283;24432;-73
2022/04/20 04:42:41;;;;;;;36.60;20.80;;;;;;;0.37;76.67;98174.42;105608;1282;137876;-74
2022/04/20 04:50:34;;;;;;;39.80;24.20;;;;;;;0.49;76.59;98177.32;105522;1284;137508;-74
2022/04/20 04:53:02;;;;;;;39.00;21.60;;;;;;;0.55;76.66;98174.61;105561;1286;22711;-74
2022/04/20 04:55:30;;;;;;;39.10;20.70;;;;;;;0.63;76.48;98173.29;105541;1284;137948;-74
2022/04/20 04:57:57;;;;;;;35.70;20.90;;;;;;;0.72;76.42;98170.71;105503;1282;24278;-74
2022/04/20 05:00:24;;;;;;;41.60;21.30;;;;;;;0.79;76.25;98170.21;105561;1284;24235;-74
2022/04/20 05:03:08;;;;;;;37.70;22.50;;;;;;;0.84;75.90;98167.33;105573;1282;137414;-74
2022/04/20 05:05:37;;;;;;;45.40;22.30;;;;;;;0.85;75.84;98167.05;105566;1285;24238;-74
2022/04/20 05:08:05;;;;;;;43.40;21.60;;;;;;;0.86;76.03;98168.47;105509;1282;137935;-74
2022/04/20 05:10:33;;;;;;;43.40;25.30;;;;;;;0.90;76.12;98168.05;105490;1282;22571;-75
2022/04/20 05:13:00;;;;;;;41.20;23.40;;;;;;;0.92;75.95;98164.98;105055;1284;138390;-75
2022/04/20 05:15:42;;;;;;;39.30;22.50;;;;;;;0.99;76.17;98162.09;105067;1284;22576;-76
2022/04/20 05:18:09;;;;;;;36.80;21.80;;;;;;;1.03;75.93;98163.16;105142;1282;22550;-75
2022/04/20 05:20:36;;;;;;;44.60;23.40;;;;;;;1.10;76.09;98166.45;105256;1283;137819;-75
2022/04/20 05:23:08;;;;;;;44.10;23.40;;;;;;;1.13;75.96;98165.14;105511;1282;23963;-75
2022/04/20 05:25:36;;;;;;;40.50;22.30;;;;;;;1.17;76.04;98160.98;105581;1280;137493;-75
2022/04/20 05:28:03;;;;;;;47.00;24.20;;;;;;;1.19;75.94;98163.15;105893;1281;24246;-75
2022/04/20 05:30:31;;;;;;;44.90;25.20;;;;;;;1.21;76.08;98157.59;105670;1284;24289;-75
2022/04/20 05:33:13;;;;;;;50.90;25.10;;;;;;;1.23;76.11;98161.27;105544;1284;138772;-75
2022/04/20 05:35:41;;;;;;;57.10;26.10;;;;;;;1.25;75.94;98162.63;106149;1281;25392;-75
2022/04/20 05:43:34;;;;;;;49.40;27.50;;;;;;;1.29;76.82;98165.59;105494;1281;137615;-76
2022/04/20 05:46:03;;;;;;;48.40;27.80;;;;;;;1.34;76.73;98165.79;105908;1283;23928;-76
2022/04/20 05:48:35;;;;;;;60.20;31.30;;;;;;;1.39;76.66;98165.02;105910;1281;22605;-76
2022/04/20 05:51:03;;;;;;;57.10;30.50;;;;;;;1.42;76.74;98162.58;105867;1283;139669;-76
2022/04/20 05:53:30;;;;;;;53.40;29.50;;;;;;;1.49;76.85;98157.75;105586;1284;25353;-76
2022/04/20 05:56:00;;;;;;;53.50;29.40;;;;;;;1.55;76.87;98155.33;105496;1281;137984;-77
2022/04/20 05:58:41;;;;;;;56.60;31.10;;;;;;;1.63;76.97;98158.90;105581;1281;25228;-77
2022/04/20 06:01:08;;;;;;;54.60;31.00;;;;;;;1.66;76.72;98158.46;105459;1283;137749;-76
2022/04/20 06:03:49;;;;;;;65.30;32.40;;;;;;;1.71;76.91;98157.17;105620;1284;22567;-76
2022/04/20 06:06:32;;;;;;;66.20;32.50;;;;;;;1.74;76.82;98158.98;105741;1284;22849;-78
2022/04/20 06:09:03;;;;;;;61.30;32.90;;;;;;;1.79;76.92;98156.69;105505;1284;138287;-79
2022/04/20 06:11:45;;;;;;;60.50;30.80;;;;;;;1.87;77.06;98153.16;105409;1284;24240;-77
2022/04/20 06:14:20;;;;;;;63.80;33.30;;;;;;;1.95;77.05;98155.48;105651;1284;137460;-78
2022/04/20 06:16:53;;;;;;;66.40;33.60;;;;;;;2.01;76.68;98155.68;105756;1284;25367;-78
2022/04/20 06:19:45;;;;;;;68.60;34.20;;;;;;;2.07;76.92;98144.52;105541;1283;137503;-80
2022/04/20 06:22:26;;;;;;;75.80;38.20;;;;;;;2.15;76.93;98148.11;105822;1285;22551;-81
2022/04/20 06:25:13;;;;;;;72.60;39.70;;;;;;;2.23;76.87;98145.38;105124;1285;138253;-82
2022/04/20 06:28:02;;;;;;;80.70;39.20;;;;;;;2.29;76.85;98144.09;105789;1284;25370;-81
2022/04/20 06:30:43;;;;;;;82.70;40.10;;;;;;;2.36;77.06;98141.31;105990;1282;31409;-81
2022/04/20 06:33:36;;;;;;;83.90;42.90;;;;;;;2.41;77.08;98138.35;105483;1282;22647;-81
2022/04/20 06:36:17;;;;;;;80.90;42.00;;;;;;;2.45;77.25;98137.55;105863;1284;22701;-81
2022/04/20 06:39:28;;;;;;;86.30;44.30;;;;;;;2.48;77.28;98135.56;105351;1284;137578;-88
2022/04/20 06:42:13;;;;;;;84.20;44.60;;;;;;;2.51;77.24;98129.70;105358;1284;22554;-82
2022/04/20 06:44:56;;;;;;;80.80;41.90;;;;;;;2.57;77.51;98129.40;105540;1284;138317;-83
2022/04/20 06:47:51;;;;;;;84.20;43.50;;;;;;;2.64;77.53;98123.84;105849;1283;22572;-83
2022/04/20 06:50:26;;;;;;;81.90;42.20;;;;;;;2.71;77.46;98114.75;105789;1283;137733;-81
2022/04/20 06:58:44;;;;;;;85.30;40.90;;;;;;;2.87;77.37;98114.41;105417;1284;25341;-83
2022/04/20 07:01:22;;;;;;;89.00;46.30;;;;;;;2.89;77.15;98103.34;105824;1284;138247;-85
2022/04/20 07:04:03;;;;;;;82.50;42.30;;;;;;;2.94;76.88;98099.29;105939;1284;22558;-84
2022/04/20 07:06:48;;;;;;;70.90;39.50;;;;;;;3.00;76.73;98101.20;105684;1283;24348;-81
2022/04/20 07:09:35;;;;;;;76.20;41.30;;;;;;;3.06;76.59;98103.81;105689;1284;137336;-88
2022/04/20 07:12:32;;;;;;;66.70;34.60;;;;;;;3.11;76.58;98100.14;105713;1284;22612;-80
2022/04/20 07:14:59;;;;;;;71.90;40.00;;;;;;;3.16;76.32;98098.15;105663;1284;137419;-81
2022/04/20 07:17:39;;;;;;;81.00;43.40;;;;;;;3.19;76.35;98098.20;105523;1284;22724;-87
2022/04/20 07:20:20;;;;;;;76.70;40.40;;;;;;;3.28;75.99;98098.58;105627;1284;139130;-79
2022/04/20 07:23:01;;;;;;;73.60;39.10;;;;;;;3.35;75.69;98097.27;105849;1282;22583;-85
2022/04/20 07:25:32;;;;;;;73.40;37.80;;;;;;;3.45;75.75;98097.28;105613;1283;137990;-88
2022/04/20 07:28:13;;;;;;;70.40;36.00;;;;;;;3.53;75.34;98095.12;105458;1283;24810;-84
2022/04/20 07:30:54;;;;;;;70.90;38.50;;;;;;;3.57;74.89;98091.71;105242;1282;22610;-84
2022/04/20 07:33:49;;;;;;;75.80;40.60;;;;;;;3.61;75.04;98088.98;105590;1282;137408;-85
2022/04/20 07:36:30;;;;;;;71.90;38.50;;;;;;;3.66;74.98;98084.45;105701;1284;22578;-85
2022/04/20 07:39:22;;;;;;;72.20;38.90;;;;;;;3.70;74.38;98085.48;105817;1284;138108;-84
2022/04/20 07:42:05;;;;;;;66.60;37.50;;;;;;;3.76;74.32;98081.08;105865;1284;25366;-85
2022/04/20 07:44:56;;;;;;;61.70;36.60;;;;;;;3.85;74.32;98080.19;105550;1283;137825;-84
2022/04/20 07:47:38;;;;;;;63.20;34.00;;;;;;;3.95;74.14;98076.48;105956;1281;22712;-83
2022/04/20 07:50:23;;;;;;;64.30;36.00;;;;;;;4.02;73.79;98069.58;105716;1281;137649;-82
2022/04/20 07:53:05;;;;;;;68.50;38.10;;;;;;;4.08;73.28;98063.67;105754;1284;24332;-83
2022/04/20 07:55:46;;;;;;;69.10;39.00;;;;;;;4.13;73.07;98065.73;105693;1284;137819;-82
2022/04/20 07:58:33;;;;;;;63.00;35.30;;;;;;;4.20;72.88;98064.91;105722;1284;22566;-81
2022/04/20 08:01:14;;;;;;;66.30;35.70;;;;;;;4.27;72.62;98060.52;106117;1284;22580;-80
2022/04/20 08:04:16;;;;;;;59.00;31.80;;;;;;;4.36;72.22;98062.26;105997;1283;23420;-81
2022/04/20 08:07:03;;;;;;;66.70;35.20;;;;;;;4.42;72.08;98064.14;106764;1282;25543;-80
2022/04/20 08:09:32;;;;;;;70.00;35.50;;;;;;;4.47;71.92;98060.42;105867;1281;137867;-81
2022/04/20 08:11:59;;;;;;;58.90;35.00;;;;;;;4.51;71.88;98060.23;106387;1281;22817;-80
2022/04/20 08:14:26;;;;;;;61.10;35.60;;;;;;;4.57;71.93;98059.45;105992;1282;137718;-80
2022/04/20 08:17:17;;;;;;;60.50;35.10;;;;;;;4.62;71.75;98060.80;105989;1282;25360;-79
2022/04/20 08:20:18;;;;;;;61.00;33.80;;;;;;;4.68;71.75;98057.20;105880;1283;137895;-79
2022/04/20 08:22:53;;;;;;;67.30;37.50;;;;;;;4.71;71.42;98056.92;106336;1281;25262;-79
2022/04/20 08:25:20;;;;;;;64.60;36.80;;;;;;;4.74;71.34;98056.33;106335;1281;22648;-79
2022/04/20 08:27:47;;;;;;;59.80;32.00;;;;;;;4.80;71.35;98056.38;106001;1281;138048;-79
2022/04/20 08:30:14;;;;;;;58.80;33.00;;;;;;;4.85;70.71;98054.59;106173;1283;22571;-79
2022/04/20 08:32:42;;;;;;;61.00;36.20;;;;;;;4.88;70.89;98054.70;106155;1281;137953;-79
2022/04/20 08:35:09;;;;;;;61.00;34.20;;;;;;;4.90;70.67;98051.86;105481;1284;22553;-78
2022/04/20 08:37:36;;;;;;;63.70;34.60;;;;;;;4.93;70.48;98051.44;105617;1284;24339;-80
2022/04/20 08:40:04;;;;;;;62.20;36.30;;;;;;;4.96;70.44;98054.55;106534;1284;137495;-80
2022/04/20 08:42:35;;;;;;;;;;;;;;;4.99;70.64;98053.46;106230;1283;25401;-79
2022/04/20 08:45:14;;;;;;;66.10;35.60;;;;;;;5.00;70.55;98052.13;106212;1284;124325;-80
2022/04/20 08:47:49;;;;;;;58.90;33.60;;;;;;;5.01;70.46;98046.14;106294;1284;25270;-80
2022/04/20 08:50:19;;;;;;;55.20;32.20;;;;;;;5.03;70.65;98044.25;106457;1284;138755;-80
2022/04/20 08:52:50;;;;;;;63.60;35.30;;;;;;;5.07;70.65;98045.83;106108;1284;25320;-80
2022/04/20 08:55:19;;;;;;;59.10;34.50;;;;;;;5.12;70.69;98042.11;106166;1283;23501;-80
2022/04/20 08:57:48;;;;;;;60.30;34.60;;;;;;;5.18;70.92;98041.61;106114;1284;138298;-80
2022/04/20 09:00:21;;;;;;;54.00;30.10;;;;;;;5.27;71.11;98039.04;106189;1284;22573;-78
2022/04/20 09:02:52;;;;;;;54.10;30.50;;;;;;;5.35;70.29;98037.77;106432;1282;138338;-79
2022/04/20 09:05:20;;;;;;;56.00;32.80;;;;;;;5.37;70.03;98033.95;106087;1282;22688;-79
2022/04/20 09:07:47;;;;;;;55.20;32.70;;;;;;;5.38;69.94;98032.08;105865;1282;22584;-79
2022/04/20 09:10:16;;;;;;;50.50;27.90;;;;;;;5.40;69.46;98031.65;105753;1282;137834;-79
2022/04/20 09:13:11;;;;;;;59.00;32.40;;;;;;;5.40;69.08;98026.11;105912;1282;23975;-79
2022/04/20 09:15:40;;;;;;;60.00;33.00;;;;;;;5.45;69.49;98026.73;105705;1284;138093;-79
2022/04/20 09:18:10;;;;;;;49.00;27.60;;;;;;;5.53;69.67;98025.25;105854;1284;25000;-79
2022/04/20 09:20:39;;;;;;;50.10;28.10;;;;;;;5.60;69.27;98020.36;105832;1284;138171;-80
2022/04/20 09:23:08;;;;;;;43.40;25.50;;;;;;;5.66;68.21;98018.91;106250;1282;22667;-79
2022/04/20 09:25:51;;;;;;;45.20;25.40;;;;;;;5.71;68.01;98021.32;105889;1284;22568;-79
2022/04/20 09:28:18;;;;;;;45.20;27.40;;;;;;;5.74;67.67;98020.59;106052;1282;137355;-78
2022/04/20 09:30:50;;;;;;;44.10;25.70;;;;;;;5.81;68.22;98018.09;105670;1282;25437;-78
2022/04/20 09:33:17;;;;;;;39.40;23.30;;;;;;;5.90;68.18;98012.41;105917;1282;137990;-78
2022/04/20 09:35:59;;;;;;;37.10;22.90;;;;;;;5.98;67.80;98015.02;105596;1284;22576;-79
2022/04/20 09:38:27;;;;;;;31.40;19.10;;;;;;;6.05;67.34;98014.23;105628;1282;138423;-78
2022/04/20 09:41:05;;;;;;;38.60;22.00;;;;;;;6.10;66.90;98010.52;105736;1284;25587;-79
2022/04/20 09:43:32;;;;;;;31.60;20.50;;;;;;;6.15;66.89;98011.70;105300;1284;23962;-79
2022/04/20 09:48:52;;;;;;;37.20;20.70;;;;;;;6.30;66.35;98007.80;105717;1282;24472;-79
2022/04/20 09:51:20;;;;;;;32.10;19.90;;;;;;;6.38;66.23;98010.69;105586;1282;137656;-79
2022/04/20 09:53:49;;;;;;;27.00;17.50;;;;;;;6.45;65.69;98007.21;106631;1282;23038;-79
2022/04/20 09:56:24;;;;;;;33.10;18.80;;;;;;;6.49;65.23;98004.51;106177;1282;138357;-78
2022/04/20 09:58:59;;;;;;;30.80;18.60;;;;;;;6.55;65.56;98007.28;105850;1284;25278;-78
2022/04/20 10:01:36;;;;;;;30.10;18.50;;;;;;;6.65;64.96;97998.70;106065;1284;22644;-79
2022/04/20 10:04:06;;;;;;;31.20;18.90;;;;;;;6.72;64.47;97998.94;105693;1282;137492;-78
2022/04/20 10:06:46;;;;;;;24.10;16.90;;;;;;;6.79;64.83;97998.36;105766;1282;24319;-79
2022/04/20 10:09:13;;;;;;;24.10;17.10;;;;;;;6.85;64.40;97998.35;105306;1282;138080;-78
2022/04/20 10:11:41;;;;;;;25.80;16.50;;;;;;;6.91;64.10;97995.63;105819;1282;22670;-78
2022/04/20 10:16:54;;;;;;;30.40;17.80;;;;;;;7.06;64.03;97996.30;105606;1283;22596;-78
2022/04/20 10:19:27;;;;;;;33.20;16.90;;;;;;;7.10;63.90;97997.16;105766;1284;22547;-79
2022/04/20 10:21:55;;;;;;;29.50;16.60;;;;;;;7.13;64.07;97995.77;105888;1284;137521;-78
2022/04/20 10:24:30;;;;;;;30.50;17.40;;;;;;;7.16;63.55;97991.47;105684;1284;22544;-78
2022/04/20 10:27:08;;;;;;;29.80;18.30;;;;;;;7.20;63.63;97995.48;105557;1284;137774;-78
2022/04/20 10:29:47;;;;;;;28.70;17.50;;;;;;;7.26;63.62;97997.00;105567;1284;24267;-78
2022/04/20 10:32:25;;;;;;;32.20;19.30;;;;;;;7.31;63.32;97997.29;105727;1282;137660;-78
2022/04/20 10:35:04;;;;;;;24.30;17.20;;;;;;;7.36;62.88;97995.83;105956;1284;24361;-78
2022/04/20 10:38:11;;;;;;;25.40;17.80;;;;;;;7.38;62.87;97990.67;106368;1284;137614;-79
2022/04/20 10:41:03;;;;;;;27.60;17.70;;;;;;;7.42;62.59;97993.52;106058;1284;22571;-78
2022/04/20 10:43:44;;;;;;;25.20;16.80;;;;;;;7.50;62.62;97990.29;106078;1283;25252;-78
2022/04/20 10:46:26;;;;;;;27.90;18.60;;;;;;;7.57;61.46;97989.38;105702;1282;137636;-78
2022/04/20 10:49:02;;;;;;;27.10;17.40;;;;;;;7.59;61.43;97989.20;106388;1282;22642;-78
2022/04/20 10:51:36;;;;;;;25.00;15.50;;;;;;;7.68;61.34;97985.65;105679;1282;138057;-78
2022/04/20 10:54:18;;;;;;;24.60;15.60;;;;;;;7.72;60.53;97985.25;106410;1282;24238;-79
2022/04/20 10:56:48;;;;;;;25.80;15.90;;;;;;;7.71;60.29;97978.46;105810;1284;138230;-79
2022/04/20 10:59:17;;;;;;;24.20;14.50;;;;;;;7.74;60.01;97974.57;105695;1285;22380;-77
2022/04/20 11:01:59;;;;;;;26.80;16.50;;;;;;;7.76;59.54;97972.61;105918;1284;22584;-78
2022/04/20 11:04:43;;;;;;;23.90;16.00;;;;;;;7.79;59.47;97973.05;105592;1284;137428;-78
2022/04/20 11:07:12;;;;;;;18.00;13.20;;;;;;;7.80;59.06;97969.33;105961;1281;29590;-78
2022/04/20 11:09:42;;;;;;;29.10;15.40;;;;;;;7.78;58.59;97966.73;105835;1282;137745;-78
2022/04/20 11:21:09;;;;;;;19.70;12.10;;;;;;;7.64;57.98;97965.40;105700;1282;137944;-81
2022/04/20 11:24:06;;;;;;;19.20;12.10;;;;;;;7.64;58.09;97963.23;105659;1284;25514;-78
2022/04/20 11:26:41;;;;;;;18.30;12.20;;;;;;;7.68;58.58;97964.23;105914;1283;138049;-78
2022/04/20 11:29:11;;;;;;;20.90;12.90;;;;;;;7.69;57.89;97957.33;105715;1282;22709;-78
2022/04/20 11:31:47;;;;;;;17.70;12.50;;;;;;;7.70;58.00;97962.39;105728;1282;24276;-78
2022/04/20 11:34:18;;;;;;;16.10;10.40;;;;;;;7.70;57.46;97956.11;105607;1282;137714;-78
2022/04/20 11:36:51;;;;;;;19.70;12.20;;;;;;;7.70;57.69;97962.94;105978;1282;22570;-78
2022/04/20 11:39:21;;;;;;;20.60;12.00;;;;;;;7.70;57.17;97960.39;105922;1284;137504;-79
2022/04/20 11:41:51;;;;;;;24.50;12.90;;;;;;;7.65;57.18;97956.65;105941;1284;24237;-79
2022/04/20 11:44:36;;;;;;;19.50;13.10;;;;;;;7.60;57.29;97955.79;105535;1284;137802;-79
2022/04/20 11:47:10;;;;;;;20.70;12.40;;;;;;;7.59;57.31;97954.51;105588;1282;22625;-79
2022/04/20 11:49:51;;;;;;;18.80;13.40;;;;;;;7.59;57.72;97957.01;105979;1284;22625;-79
2022/04/20 11:52:21;;;;;;;20.80;13.50;;;;;;;7.63;57.77;97954.81;105777;1284;137480;-78
2022/04/20 11:55:06;;;;;;;21.20;15.30;;;;;;;7.67;57.19;97952.99;105779;1284;25411;-78
2022/04/20 11:57:35;;;;;;;20.20;13.50;;;;;;;7.67;57.05;97952.03;105644;1283;137594;-78
2022/04/20 12:00:04;;;;;;;21.40;13.40;;;;;;;7.67;57.70;97947.15;105869;1284;22609;-78
2022/04/20 12:02:39;;;;;;;21.70;12.60;;;;;;;7.66;57.58;97950.31;105575;1284;137984;-79
2022/04/20 12:05:07;;;;;;;25.70;13.20;;;;;;;7.67;57.40;97943.58;105950;1284;24445;-79
2022/04/20 12:07:36;;;;;;;24.90;12.50;;;;;;;7.69;57.22;97945.19;105704;1284;23366;-79
2022/04/20 12:10:03;;;;;;;19.80;13.60;;;;;;;7.72;57.79;97942.92;105765;1284;137490;-78
2022/04/20 12:12:32;;;;;;;20.10;12.10;;;;;;;7.79;58.01;97939.42;105770;1284;25355;-78
2022/04/20 12:15:07;;;;;;;18.80;12.90;;;;;;;7.87;57.82;97940.62;105632;1284;137531;-79
2022/04/20 12:17:35;;;;;;;18.70;12.80;;;;;;;7.90;56.89;97936.93;106027;1282;22595;-79
2022/04/20 12:20:03;;;;;;;17.90;13.10;;;;;;;7.96;57.22;97932.50;105873;1282;22569;-78